| time (UTC) | temp F | wind direction | speed knots | gust knots | rain 1hr in | rain 24hr in | rain mn in | humidity % | barometer mb |
| 20260506201036 | 78 | 128 | 3.5 | 7.0 | 0.00 | 0.00 | 0.00 | 22 | 1015.4 |
| 20260506200019 | 77 | 100 | 1.7 | 6.1 | 0.00 | 0.00 | 0.00 | 22 | 1015.5 |
| 20260506195020 | 77 | 0 | 2.6 | 7.8 | 0.00 | 0.00 | 0.00 | 23 | 1015.6 |
| 20260506194020 | 78 | 164 | 0.9 | 5.2 | 0.00 | 0.00 | 0.00 | 22 | 1015.8 |
| 20260506193020 | 77 | 146 | 2.6 | 6.1 | 0.00 | 0.00 | 0.00 | 23 | 1015.7 |
| 20260506192017 | 76 | 148 | 3.5 | 7.8 | 0.00 | 0.00 | 0.00 | 24 | 1015.9 |
| 20260506191018 | 75 | 69 | 5.2 | 13.0 | 0.00 | 0.00 | 0.00 | 25 | 1016.0 |
| 20260506190021 | 74 | 2 | 3.5 | 11.3 | 0.00 | 0.00 | 0.00 | 25 | 1016.1 |
| 20260506185021 | 74 | 60 | 5.2 | 10.4 | 0.00 | 0.00 | 0.00 | 25 | 1016.1 |
| 20260506184017 | 74 | 83 | 4.3 | 10.4 | 0.00 | 0.00 | 0.00 | 25 | 1016.2 |
| 20260506183039 | 73 | 45 | 6.1 | 11.3 | 0.00 | 0.00 | 0.00 | 26 | 1016.2 |
| 20260506182018 | 73 | 90 | 4.3 | 12.2 | 0.00 | 0.00 | 0.00 | 26 | 1016.2 |
| 20260506181019 | 73 | 57 | 3.5 | 9.6 | 0.00 | 0.00 | 0.00 | 26 | 1016.2 |
| 20260506180019 | 72 | 358 | 6.1 | 13.9 | 0.00 | 0.00 | 0.00 | 27 | 1016.3 |
| 20260506175019 | 72 | 15 | 10.4 | 19.1 | 0.00 | 0.00 | 0.00 | 27 | 1016.2 |
| 20260506174039 | 73 | 18 | 7.0 | 12.2 | 0.00 | 0.00 | 0.00 | 27 | 1016.2 |
| 20260506173019 | 72 | 359 | 5.2 | 10.4 | 0.00 | 0.00 | 0.00 | 27 | 1016.1 |
| 20260506172019 | 72 | 337 | 10.4 | 16.5 | 0.00 | 0.00 | 0.00 | 28 | 1016.1 |
| 20260506171017 | 72 | 341 | 11.3 | 20.9 | 0.00 | 0.00 | 0.00 | 28 | 1016.0 |
| 20260506170019 | 71 | 351 | 10.4 | 15.6 | 0.00 | 0.00 | 0.00 | 28 | 1016.0 |
| 20260506165020 | 71 | 321 | 11.3 | 20.0 | 0.00 | 0.00 | 0.00 | 27 | 1015.9 |
| 20260506164020 | 71 | 331 | 11.3 | 19.1 | 0.00 | 0.00 | 0.00 | 26 | 1016.0 |
| 20260506163018 | 70 | 330 | 12.2 | 19.1 | 0.00 | 0.00 | 0.00 | 26 | 1015.9 |
| 20260506162017 | 69 | 329 | 11.3 | 18.2 | 0.00 | 0.00 | 0.00 | 26 | 1015.8 |
| 20260506161041 | 69 | 325 | 12.2 | 18.2 | 0.00 | 0.00 | 0.00 | 26 | 1015.8 |
| 20260506160018 | 69 | 329 | 10.4 | 16.5 | 0.00 | 0.00 | 0.00 | 26 | 1015.8 |
| 20260506155018 | 68 | 331 | 10.4 | 15.6 | 0.00 | 0.00 | 0.00 | 26 | 1015.8 |
| 20260506154038 | 68 | 331 | 11.3 | 17.4 | 0.00 | 0.00 | 0.00 | 27 | 1015.7 |
| 20260506153019 | 67 | 343 | 10.4 | 15.6 | 0.00 | 0.00 | 0.00 | 27 | 1015.7 |
| 20260506152018 | 67 | 332 | 9.6 | 13.9 | 0.00 | 0.00 | 0.00 | 27 | 1015.6 |
| 20260506151019 | 66 | 333 | 8.7 | 13.9 | 0.00 | 0.00 | 0.00 | 27 | 1015.6 |
| 20260506150140 | 66 | 335 | 8.7 | 15.6 | 0.00 | 0.00 | 0.00 | 27 | 1015.6 |
| 20260506145019 | 66 | 336 | 7.8 | 13.9 | 0.00 | 0.00 | 0.00 | 27 | 1015.6 |
| 20260506144020 | 65 | 328 | 7.0 | 12.2 | 0.00 | 0.00 | 0.00 | 27 | 1015.5 |
| 20260506143020 | 65 | 322 | 5.2 | 9.6 | 0.00 | 0.00 | 0.00 | 28 | 1015.5 |
| 20260506142018 | 64 | 312 | 3.5 | 7.8 | 0.00 | 0.00 | 0.00 | 29 | 1015.4 |
| 20260506141019 | 64 | 314 | 3.5 | 7.0 | 0.00 | 0.00 | 0.00 | 29 | 1015.4 |
| 20260506140020 | 64 | 316 | 2.6 | 6.1 | 0.00 | 0.00 | 0.00 | 29 | 1015.3 |
| 20260506135020 | 64 | 298 | 2.6 | 7.0 | 0.00 | 0.00 | 0.00 | 29 | 1015.1 |
| 20260506134017 | 63 | 305 | 1.7 | 4.3 | 0.00 | 0.00 | 0.00 | 30 | 1015.0 |
| 20260506133018 | 63 | 315 | 2.6 | 7.0 | 0.00 | 0.00 | 0.00 | 30 | 1014.9 |
| 20260506132028 | 62 | 315 | 2.6 | 4.3 | 0.00 | 0.00 | 0.00 | 31 | 1014.7 |
| 20260506131028 | 61 | 323 | 1.7 | 3.5 | 0.00 | 0.00 | 0.00 | 33 | 1014.6 |
| 20260506130029 | 60 | 312 | 1.7 | 4.3 | 0.00 | 0.00 | 0.00 | 33 | 1014.6 |
| 20260506125028 | 60 | 326 | 1.7 | 2.6 | 0.00 | 0.00 | 0.00 | 34 | 1014.5 |
| 20260506124029 | 60 | 322 | 1.7 | 2.6 | 0.00 | 0.00 | 0.00 | 34 | 1014.3 |
| 20260506123029 | 60 | 327 | 1.7 | 3.5 | 0.00 | 0.00 | 0.00 | 34 | 1014.1 |
| 20260506122029 | 61 | 334 | 2.6 | 3.5 | 0.00 | 0.00 | 0.00 | 32 | 1014.1 |
| 20260506121029 | 61 | 337 | 2.6 | 3.5 | 0.00 | 0.00 | 0.00 | 32 | 1014.1 |
| 20260506120021 | 61 | 328 | 2.6 | 4.3 | 0.00 | 0.00 | 0.00 | 31 | 1014.0 |
| 20260506115030 | 61 | 319 | 3.5 | 4.3 | 0.00 | 0.00 | 0.00 | 31 | 1014.0 |
| 20260506114030 | 61 | 307 | 2.6 | 4.3 | 0.00 | 0.00 | 0.00 | 31 | 1013.9 |
| 20260506113030 | 60 | 315 | 0.9 | 2.6 | 0.00 | 0.00 | 0.00 | 32 | 1013.8 |
| 20260506112020 | 60 | 319 | 2.6 | 4.3 | 0.00 | 0.00 | 0.00 | 31 | 1013.8 |
| 20260506111042 | 61 | 319 | 1.7 | 4.3 | 0.00 | 0.00 | 0.00 | 31 | 1013.7 |
| 20260506110041 | 61 | 316 | 2.6 | 5.2 | 0.00 | 0.00 | 0.00 | 30 | 1013.6 |
| 20260506105021 | 61 | 324 | 2.6 | 4.3 | 0.00 | 0.00 | 0.00 | 30 | 1013.5 |
| 20260506104031 | 61 | 318 | 2.6 | 5.2 | 0.00 | 0.00 | 0.00 | 30 | 1013.5 |
| 20260506103021 | 61 | 314 | 3.5 | 5.2 | 0.00 | 0.00 | 0.00 | 30 | 1013.4 |
| 20260506102020 | 61 | 312 | 3.5 | 4.3 | 0.00 | 0.00 | 0.00 | 30 | 1013.3 |
| 20260506101018 | 61 | 315 | 2.6 | 4.3 | 0.00 | 0.00 | 0.00 | 30 | 1013.1 |
| 20260506100019 | 60 | 330 | 0.9 | 2.6 | 0.00 | 0.00 | 0.00 | 31 | 1013.0 |
| 20260506095019 | 60 | 322 | 2.6 | 3.5 | 0.00 | 0.00 | 0.00 | 31 | 1012.9 |
| 20260506094018 | 61 | 321 | 1.7 | 4.3 | 0.00 | 0.00 | 0.00 | 31 | 1012.8 |
| 20260506093018 | 61 | 320 | 2.6 | 4.3 | 0.00 | 0.00 | 0.00 | 30 | 1012.8 |
| 20260506092019 | 61 | 317 | 2.6 | 5.2 | 0.00 | 0.00 | 0.00 | 30 | 1012.8 |
| 20260506091022 | 61 | 321 | 2.6 | 4.3 | 0.00 | 0.00 | 0.00 | 30 | 1012.8 |
| 20260506090022 | 62 | 316 | 2.6 | 4.3 | 0.00 | 0.00 | 0.00 | 30 | 1012.7 |
| 20260506085020 | 62 | 317 | 2.6 | 3.5 | 0.00 | 0.00 | 0.00 | 29 | 1012.8 |
| 20260506084022 | 62 | 313 | 2.6 | 4.3 | 0.00 | 0.00 | 0.00 | 30 | 1012.8 |
| 20260506083019 | 62 | 316 | 2.6 | 4.3 | 0.00 | 0.00 | 0.00 | 30 | 1012.9 |
| 20260506082022 | 61 | 315 | 2.6 | 4.3 | 0.00 | 0.00 | 0.00 | 30 | 1012.9 |
| 20260506081042 | 61 | 317 | 1.7 | 5.2 | 0.00 | 0.00 | 0.00 | 30 | 1012.9 |
| 20260506073023 | 61 | 321 | 1.7 | 4.3 | 0.00 | 0.00 | 0.00 | 30 | 1012.7 |
| 20260506072024 | 61 | 322 | 0.9 | 4.3 | 0.00 | 0.00 | 0.00 | 31 | 1012.7 |
| 20260506071020 | 60 | 330 | 0.0 | 1.7 | 0.00 | 0.00 | 0.00 | 31 | 1012.7 |
| 20260506062021 | 63 | 315 | 0.9 | 1.7 | 0.00 | 0.00 | 0.00 | 29 | 1012.3 |
| 20260506061041 | 63 | 303 | 0.9 | 2.6 | 0.00 | 0.00 | 0.00 | 28 | 1012.2 |
| 20260506051024 | 64 | 308 | 0.9 | 2.6 | 0.00 | 0.00 | 0.00 | 28 | 1011.7 |
| 20260506045024 | 64 | 284 | 1.7 | 2.6 | 0.00 | 0.00 | 0.00 | 28 | 1011.5 |
| 20260506044023 | 64 | 324 | 1.7 | 3.5 | 0.00 | 0.00 | 0.00 | 29 | 1011.4 |
| 20260506043023 | 64 | 305 | 0.9 | 2.6 | 0.00 | 0.00 | 0.00 | 29 | 1011.3 |
| 20260506042023 | 64 | 310 | 0.9 | 2.6 | 0.00 | 0.00 | 0.00 | 29 | 1011.2 |
| 20260506041024 | 64 | 317 | 0.9 | 3.5 | 0.00 | 0.00 | 0.00 | 30 | 1011.1 |
| 20260506040019 | 65 | 280 | 0.0 | 0.9 | 0.00 | 0.00 | 0.00 | 30 | 1010.9 |
| 20260506035019 | 65 | 262 | 0.0 | 1.7 | 0.00 | 0.00 | 0.00 | 30 | 1010.7 |
| 20260506034018 | 66 | 266 | 0.9 | 1.7 | 0.00 | 0.00 | 0.00 | 29 | 1010.5 |
| 20260506033019 | 66 | 220 | 1.7 | 2.6 | 0.00 | 0.00 | 0.00 | 28 | 1010.4 |
| 20260506032020 | 66 | 0.0 | 0.0 | 0.00 | 0.00 | 0.00 | 29 | 1010.2 | |
| 20260506031020 | 67 | 213 | 2.6 | 3.5 | 0.00 | 0.00 | 0.00 | 28 | 1010.0 |
| 20260506030020 | 67 | 204 | 2.6 | 4.3 | 0.00 | 0.00 | 0.00 | 28 | 1009.8 |
| 20260506025019 | 68 | 197 | 3.5 | 5.2 | 0.00 | 0.00 | 0.00 | 28 | 1009.7 |
| 20260506024019 | 68 | 191 | 4.3 | 6.1 | 0.00 | 0.00 | 0.00 | 28 | 1009.6 |
| 20260506023020 | 68 | 191 | 3.5 | 5.2 | 0.00 | 0.00 | 0.00 | 26 | 1009.5 |
| 20260506022017 | 68 | 191 | 5.2 | 7.0 | 0.00 | 0.00 | 0.00 | 26 | 1009.4 |
| 20260506021017 | 69 | 193 | 5.2 | 7.8 | 0.00 | 0.00 | 0.00 | 25 | 1009.2 |
| 20260506020041 | 69 | 189 | 4.3 | 7.8 | 0.00 | 0.00 | 0.00 | 23 | 1009.1 |
| 20260506015021 | 70 | 187 | 5.2 | 7.0 | 0.00 | 0.00 | 0.00 | 22 | 1009.0 |
| 20260506014018 | 70 | 189 | 5.2 | 9.6 | 0.00 | 0.00 | 0.00 | 21 | 1009.0 |
| 20260506013019 | 70 | 186 | 5.2 | 8.7 | 0.00 | 0.00 | 0.00 | 21 | 1009.0 |
| 20260506012039 | 70 | 192 | 4.3 | 7.0 | 0.00 | 0.00 | 0.00 | 21 | 1008.9 |
| 20260506011018 | 71 | 183 | 4.3 | 7.0 | 0.00 | 0.00 | 0.00 | 21 | 1008.9 |
| 20260506010018 | 70 | 196 | 4.3 | 7.0 | 0.00 | 0.00 | 0.00 | 21 | 1008.9 |
| 20260506005019 | 71 | 200 | 4.3 | 7.8 | 0.00 | 0.00 | 0.00 | 21 | 1008.8 |
| 20260506004039 | 70 | 201 | 3.5 | 6.1 | 0.00 | 0.00 | 0.00 | 21 | 1008.8 |
| 20260506003019 | 70 | 176 | 1.7 | 6.1 | 0.00 | 0.00 | 0.00 | 21 | 1008.6 |
| 20260506002040 | 71 | 179 | 3.5 | 9.6 | 0.00 | 0.00 | 0.00 | 21 | 1008.6 |
| 20260506001019 | 70 | 191 | 4.3 | 8.7 | 0.00 | 0.00 | 0.00 | 22 | 1008.6 |
| 20260506000020 | 70 | 134 | 2.6 | 6.1 | 0.00 | 0.00 | 0.00 | 22 | 1008.6 |
| 20260505235019 | 70 | 184 | 2.6 | 8.7 | 0.00 | 0.00 | 0.00 | 22 | 1008.6 |
| 20260505234040 | 71 | 177 | 2.6 | 7.0 | 0.00 | 0.00 | 0.00 | 22 | 1008.6 |
| 20260505233040 | 72 | 174 | 3.5 | 13.9 | 0.00 | 0.00 | 0.00 | 21 | 1008.6 |
| 20260505232018 | 72 | 241 | 1.7 | 5.2 | 0.00 | 0.00 | 0.00 | 21 | 1008.6 |
| 20260505231018 | 71 | 191 | 2.6 | 7.0 | 0.00 | 0.00 | 0.00 | 21 | 1008.8 |
| 20260505230021 | 70 | 345 | 6.1 | 10.4 | 0.00 | 0.00 | 0.00 | 23 | 1009.0 |
| 20260505225020 | 70 | 306 | 2.6 | 6.1 | 0.00 | 0.00 | 0.00 | 23 | 1009.1 |
| 20260505224018 | 69 | 179 | 3.5 | 7.8 | 0.00 | 0.00 | 0.00 | 23 | 1009.1 |
| 20260505223038 | 69 | 28 | 2.6 | 8.7 | 0.00 | 0.00 | 0.00 | 24 | 1009.2 |
| 20260505222018 | 69 | 186 | 3.5 | 7.0 | 0.00 | 0.00 | 0.00 | 24 | 1009.3 |
| 20260505221018 | 70 | 150 | 2.6 | 7.8 | 0.00 | 0.00 | 0.00 | 23 | 1009.3 |
| 20260505220100 | 70 | 163 | 3.5 | 7.0 | 0.00 | 0.00 | 0.00 | 23 | 1009.5 |
| 20260505215019 | 69 | 177 | 3.5 | 7.0 | 0.00 | 0.00 | 0.00 | 24 | 1009.5 |
| 20260505214019 | 69 | 164 | 4.3 | 7.8 | 0.00 | 0.00 | 0.00 | 24 | 1009.7 |
| 20260505213019 | 69 | 170 | 3.5 | 7.8 | 0.00 | 0.00 | 0.00 | 24 | 1009.7 |
| 20260505212019 | 69 | 123 | 3.5 | 11.3 | 0.00 | 0.00 | 0.00 | 25 | 1009.9 |
| 20260505211037 | 69 | 174 | 5.2 | 13.0 | 0.00 | 0.00 | 0.00 | 25 | 1010.0 |
| 20260505210020 | 68 | 22 | 4.3 | 7.0 | 0.00 | 0.00 | 0.00 | 26 | 1010.1 |
| 20260505205019 | 69 | 179 | 4.3 | 11.3 | 0.00 | 0.00 | 0.00 | 25 | 1010.1 |
| 20260505204020 | 69 | 163 | 5.2 | 10.4 | 0.00 | 0.00 | 0.00 | 25 | 1010.1 |
| 20260505203017 | 69 | 169 | 2.6 | 7.8 | 0.00 | 0.00 | 0.00 | 26 | 1010.0 |
| 20260505202017 | 69 | 163 | 3.5 | 11.3 | 0.00 | 0.00 | 0.00 | 26 | 1010.1 |